Time;durP1;ratioP1;P1;durP2;ratioP2;P2;SDS_P1;SDS_P2;PMS_P1;PMS_P2;Temp;Humidity;BMP_temperature;BMP_pressure;BME280_temperature;BME280_humidity;BME280_pressure;Samples;Min_cycle;Max_cycle;Signal;HPM_P1;HPM_P2
2022/09/09 00:03:08;;;;;;;4.73;2.20;;;;;;;19.21;54.99;97607.53;8315016;28;20458;-75
2022/09/09 00:07:18;;;;;;;4.60;2.03;;;;;;;19.23;55.23;97603.00;8315286;28;20254;-75
2022/09/09 00:11:27;;;;;;;4.47;2.10;;;;;;;19.20;55.16;97599.78;8314902;28;20237;-74
2022/09/09 00:15:38;;;;;;;7.30;2.10;;;;;;;19.05;55.59;97591.44;8314910;28;20289;-74
2022/09/09 00:19:50;;;;;;;4.20;2.00;;;;;;;19.10;55.62;97597.13;8314868;28;20248;-74
2022/09/09 00:23:55;;;;;;;2.93;1.70;;;;;;;19.11;55.69;97590.91;8314302;28;20250;-74
2022/09/09 00:27:58;;;;;;;6.60;2.30;;;;;;;19.00;55.58;97586.59;8314518;28;20234;-74
2022/09/09 00:32:10;;;;;;;7.30;2.40;;;;;;;18.98;55.85;97590.28;8314290;28;20241;-75
2022/09/09 00:36:15;;;;;;;7.03;2.10;;;;;;;19.02;55.62;97587.28;8314637;28;20295;-74
2022/09/09 00:40:28;;;;;;;8.43;2.37;;;;;;;19.00;55.26;97583.97;8316918;28;20244;-74
2022/09/09 00:44:34;;;;;;;6.20;2.17;;;;;;;19.03;55.93;97580.22;8321209;28;20428;-74
2022/09/09 00:48:46;;;;;;;7.60;2.10;;;;;;;18.97;56.00;97583.38;8321020;28;20272;-74
2022/09/09 00:52:57;;;;;;;5.47;2.20;;;;;;;18.70;56.71;97582.91;8320402;28;20290;-74
2022/09/09 00:57:12;;;;;;;3.97;2.03;;;;;;;18.92;56.13;97589.00;8320547;28;20228;-74
2022/09/09 01:01:15;;;;;;;6.97;2.30;;;;;;;18.92;55.75;97579.38;8320244;28;20241;-73
2022/09/09 01:05:21;;;;;;;4.93;2.20;;;;;;;18.92;56.07;97575.88;8320069;28;20244;-74
2022/09/09 01:09:28;;;;;;;4.43;1.87;;;;;;;18.93;55.67;97578.38;8320588;28;20235;-74
2022/09/09 01:13:34;;;;;;;3.60;1.93;;;;;;;18.95;55.77;97576.47;8320108;28;20246;-74
2022/09/09 01:17:45;;;;;;;6.87;2.30;;;;;;;18.87;56.07;97583.34;8320285;28;20285;-74
2022/09/09 01:21:52;;;;;;;7.60;2.27;;;;;;;18.67;56.91;97584.97;8319322;28;20558;-73
2022/09/09 01:26:16;;;;;;;5.80;2.23;;;;;;;18.30;57.89;97588.84;8319765;28;20236;-73
2022/09/09 01:30:19;;;;;;;7.33;2.60;;;;;;;17.93;59.75;97594.47;8319710;28;20238;-74
2022/09/09 01:34:23;;;;;;;5.47;2.23;;;;;;;17.91;59.45;97587.66;8319543;28;20331;-74
2022/09/09 01:38:26;;;;;;;5.40;2.70;;;;;;;18.27;58.41;97585.63;8319474;28;20431;-74
2022/09/09 01:42:31;;;;;;;5.67;2.00;;;;;;;18.32;58.33;97583.47;8319383;28;20252;-74
2022/09/09 01:46:33;;;;;;;7.00;2.57;;;;;;;18.02;59.45;97581.56;8319290;28;20237;-74
2022/09/09 01:50:36;;;;;;;7.77;2.50;;;;;;;18.38;58.22;97579.53;8318734;28;20233;-74
2022/09/09 01:54:39;;;;;;;5.67;2.87;;;;;;;17.79;60.46;97585.03;8318906;28;20248;-73
2022/09/09 01:58:55;;;;;;;5.57;2.23;;;;;;;18.34;58.36;97578.94;8318738;28;20233;-74
2022/09/09 02:03:02;;;;;;;9.07;2.67;;;;;;;18.31;58.26;97576.56;8318383;28;20225;-73
2022/09/09 02:07:09;;;;;;;8.43;2.63;;;;;;;18.44;58.06;97571.97;8318375;28;20269;-74
2022/09/09 02:11:14;;;;;;;4.60;2.30;;;;;;;18.50;57.97;97565.38;8318568;28;20247;-73
2022/09/09 02:15:21;;;;;;;5.00;2.23;;;;;;;17.90;59.63;97578.97;8318530;28;20462;-73
2022/09/09 02:19:27;;;;;;;4.40;2.20;;;;;;;18.19;58.99;97570.53;8318133;28;20229;-74
2022/09/09 02:23:30;;;;;;;5.10;2.20;;;;;;;18.38;58.40;97567.25;8317876;28;20233;-74
2022/09/09 02:27:33;;;;;;;5.77;2.37;;;;;;;18.35;58.53;97573.56;8317858;28;20542;-74
2022/09/09 02:31:37;;;;;;;6.73;2.63;;;;;;;18.38;58.00;97576.91;8317777;28;20237;-74
2022/09/09 02:35:41;;;;;;;4.23;2.20;;;;;;;18.49;58.11;97577.66;8317735;28;20275;-74
2022/09/09 02:39:44;;;;;;;4.83;1.83;;;;;;;18.53;58.05;97581.69;8317748;28;20256;-73
2022/09/09 02:43:47;;;;;;;4.67;2.20;;;;;;;18.54;57.59;97577.28;8317438;28;20232;-73
2022/09/09 02:47:54;;;;;;;4.90;2.20;;;;;;;18.60;57.37;97583.81;8316898;28;20229;-74
2022/09/09 02:52:02;;;;;;;5.23;2.20;;;;;;;18.37;58.09;97578.66;8317279;28;20242;-74
2022/09/09 02:56:09;;;;;;;8.50;2.30;;;;;;;18.14;59.21;97578.78;8317250;28;20237;-74
2022/09/09 03:00:12;;;;;;;7.00;2.00;;;;;;;18.28;58.41;97574.22;8316879;28;20294;-74
2022/09/09 03:04:16;;;;;;;4.30;2.00;;;;;;;18.46;57.94;97571.84;8315795;28;20237;-73
2022/09/09 03:08:19;;;;;;;6.10;1.77;;;;;;;18.41;58.24;97563.53;8316884;28;20244;-73
2022/09/09 03:12:22;;;;;;;5.63;2.30;;;;;;;17.44;61.57;97574.75;8316580;28;20232;-73
2022/09/09 03:16:25;;;;;;;3.17;1.80;;;;;;;18.11;59.25;97568.53;8316386;28;20235;-74
2022/09/09 03:20:30;;;;;;;3.70;2.03;;;;;;;18.31;58.27;97564.28;8316593;28;20248;-73
2022/09/09 03:24:33;;;;;;;4.93;2.10;;;;;;;18.11;59.21;97563.31;8316242;28;20237;-74
2022/09/09 03:28:36;;;;;;;6.43;2.20;;;;;;;18.25;58.68;97561.34;8316184;28;20255;-74
2022/09/09 03:32:40;;;;;;;4.67;1.90;;;;;;;18.11;59.59;97575.59;8315882;28;20396;-74
2022/09/09 03:36:44;;;;;;;7.20;2.30;;;;;;;18.18;58.49;97566.25;8316031;28;20275;-73
2022/09/09 03:40:51;;;;;;;5.00;1.90;;;;;;;18.35;58.22;97565.72;8315729;28;20237;-74
2022/09/09 03:44:54;;;;;;;4.40;1.90;;;;;;;18.47;57.70;97557.78;8315347;28;20233;-74
2022/09/09 03:48:57;;;;;;;7.40;2.03;;;;;;;18.43;58.13;97551.97;8315502;28;20225;-73
2022/09/09 03:53:01;;;;;;;3.57;1.83;;;;;;;18.37;57.50;97552.44;8315261;28;20447;-73
2022/09/09 03:57:04;;;;;;;5.27;2.10;;;;;;;17.98;59.52;97554.78;8315310;28;20519;-73
2022/09/09 04:01:09;;;;;;;4.43;2.07;;;;;;;18.18;59.16;97547.91;8315163;28;20233;-74
2022/09/09 04:05:12;;;;;;;5.57;2.10;;;;;;;18.11;58.80;97547.59;8315009;28;20519;-74
2022/09/09 04:09:16;;;;;;;4.70;2.10;;;;;;;17.92;59.82;97563.13;8315320;28;20237;-74
2022/09/09 04:13:19;;;;;;;3.53;2.10;;;;;;;17.86;59.67;97556.59;8315009;28;20241;-74
2022/09/09 04:17:22;;;;;;;4.30;2.13;;;;;;;18.14;58.60;97552.59;8315126;28;20232;-73
2022/09/09 04:21:24;;;;;;;6.80;2.20;;;;;;;18.19;58.49;97561.84;8314937;28;20241;-73
2022/09/09 04:25:28;;;;;;;10.87;2.10;;;;;;;18.26;58.15;97561.22;8314918;28;20232;-74
2022/09/09 04:29:31;;;;;;;4.03;1.90;;;;;;;18.39;58.09;97554.94;8314790;28;20306;-74
2022/09/09 04:33:34;;;;;;;5.40;1.80;;;;;;;18.42;57.43;97558.16;8314473;28;20280;-74
2022/09/09 04:37:42;;;;;;;4.03;2.03;;;;;;;18.03;58.66;97562.25;8314527;28;20233;-74
2022/09/09 04:41:47;;;;;;;6.20;2.13;;;;;;;17.98;58.52;97560.84;8314272;28;20295;-73
2022/09/09 04:45:50;;;;;;;6.40;1.80;;;;;;;18.28;57.80;97564.53;8313843;28;20240;-73
2022/09/09 04:49:54;;;;;;;4.90;1.80;;;;;;;18.32;57.96;97565.13;8314151;28;20228;-73
2022/09/09 04:53:57;;;;;;;5.70;1.73;;;;;;;18.38;57.33;97566.41;8313499;28;20246;-74
2022/09/09 04:58:05;;;;;;;4.67;2.00;;;;;;;18.12;58.18;97569.38;8313953;28;20236;-74
2022/09/09 05:02:08;;;;;;;3.60;1.87;;;;;;;18.29;57.83;97576.69;8313857;28;20229;-74
2022/09/09 05:06:13;;;;;;;5.60;1.80;;;;;;;18.39;57.86;97592.50;8313839;28;20243;-74
2022/09/09 05:10:17;;;;;;;5.00;1.93;;;;;;;18.32;57.80;97597.41;8314199;28;20240;-73
2022/09/09 05:14:22;;;;;;;4.13;1.90;;;;;;;18.34;58.09;97597.28;8314074;28;20233;-74
2022/09/09 05:18:25;;;;;;;5.53;1.90;;;;;;;18.36;57.31;97601.44;8314045;28;20237;-73
2022/09/09 05:22:28;;;;;;;11.83;2.83;;;;;;;18.39;57.29;97603.00;8313979;28;20233;-74
2022/09/09 05:26:31;;;;;;;7.90;2.40;;;;;;;18.33;57.60;97604.31;8316631;28;20414;-74
2022/09/09 05:30:35;;;;;;;7.33;2.20;;;;;;;18.42;57.38;97597.47;8319875;28;20551;-74
2022/09/09 05:34:39;;;;;;;6.87;2.13;;;;;;;18.47;57.17;97597.94;8319584;28;20283;-73
2022/09/09 05:38:42;;;;;;;6.23;1.87;;;;;;;18.62;56.67;97606.34;8319622;28;20262;-75
2022/09/09 05:42:44;;;;;;;4.53;2.00;;;;;;;19.01;55.62;97597.91;8319504;28;20232;-74
2022/09/09 05:46:49;;;;;;;11.60;4.93;;;;;;;18.68;55.83;97610.25;8319037;28;20458;-74
2022/09/09 05:50:54;;;;;;;4.20;2.07;;;;;;;18.70;56.07;97611.78;8319458;28;20228;-73
2022/09/09 05:54:56;;;;;;;4.47;1.93;;;;;;;18.79;56.76;97612.81;8319360;28;20229;-74
2022/09/09 05:59:00;;;;;;;6.43;2.50;;;;;;;18.85;56.78;97611.47;8319237;28;20524;-74
2022/09/09 06:03:04;;;;;;;5.73;2.10;;;;;;;18.84;56.50;97618.50;8318801;28;20232;-74
2022/09/09 06:07:07;;;;;;;4.80;2.03;;;;;;;18.81;56.23;97610.91;8318631;28;20332;-74
2022/09/09 06:11:12;;;;;;;5.57;2.17;;;;;;;18.98;56.27;97606.84;8318503;28;20229;-75
2022/09/09 06:15:15;;;;;;;5.93;1.97;;;;;;;19.03;56.02;97601.22;8318381;28;20457;-74
2022/09/09 06:19:20;;;;;;;5.03;2.10;;;;;;;19.24;55.25;97603.81;8318442;28;20237;-74
2022/09/09 06:23:23;;;;;;;4.60;1.93;;;;;;;19.86;54.44;97605.44;8318160;28;20233;-74
2022/09/09 06:27:25;;;;;;;5.70;2.00;;;;;;;19.99;53.70;97604.34;8318495;28;20234;-74
2022/09/09 06:31:29;;;;;;;4.60;2.03;;;;;;;20.15;53.67;97609.09;8318217;28;20226;-75
2022/09/09 06:35:34;;;;;;;5.83;2.23;;;;;;;20.37;55.17;97605.34;8317804;28;20244;-75
2022/09/09 06:39:37;;;;;;;6.00;2.23;;;;;;;21.07;52.85;97605.97;8316777;28;20231;-76
2022/09/09 06:43:40;;;;;;;4.93;1.80;;;;;;;21.25;52.11;97608.72;8317768;28;20226;-77
2022/09/09 06:47:42;;;;;;;4.13;1.80;;;;;;;21.26;51.56;97618.25;8317664;28;20226;-76
2022/09/09 06:51:46;;;;;;;6.93;2.00;;;;;;;21.46;51.34;97625.13;8317496;28;20299;-74
2022/09/09 06:55:49;;;;;;;7.33;1.90;;;;;;;21.59;50.51;97627.44;8320125;28;20514;-75
2022/09/09 06:59:52;;;;;;;7.03;1.80;;;;;;;21.68;51.15;97617.81;8323399;28;20233;-76
2022/09/09 07:03:58;;;;;;;10.57;2.07;;;;;;;21.77;50.77;97624.03;8317027;28;20550;-76
2022/09/09 07:08:04;;;;;;;4.47;1.57;;;;;;;22.12;49.87;97619.78;8317057;28;20339;-77
2022/09/09 07:12:07;;;;;;;5.93;1.83;;;;;;;22.20;49.34;97626.00;8316718;28;20260;-77
2022/09/09 07:16:11;;;;;;;4.00;1.60;;;;;;;22.21;49.74;97624.19;8318984;28;20239;-78
2022/09/09 07:20:14;;;;;;;3.60;1.80;;;;;;;22.21;49.73;97632.09;8317059;28;20240;-75
2022/09/09 07:24:19;;;;;;;4.33;1.60;;;;;;;22.52;48.60;97622.00;8316617;28;20234;-74
2022/09/09 07:28:22;;;;;;;6.23;1.67;;;;;;;22.49;48.55;97624.97;8316292;28;20425;-77
2022/09/09 07:32:25;;;;;;;5.03;1.53;;;;;;;22.23;48.71;97630.13;8316184;28;20240;-78
2022/09/09 07:36:30;;;;;;;6.20;1.57;;;;;;;22.34;47.94;97629.94;8316164;28;20480;-78
2022/09/09 07:40:36;;;;;;;5.33;1.73;;;;;;;22.49;47.21;97626.78;8315979;28;20489;-77
2022/09/09 07:44:39;;;;;;;6.20;1.47;;;;;;;22.57;47.90;97625.03;8315671;28;20417;-78
2022/09/09 07:48:45;;;;;;;4.23;1.50;;;;;;;22.54;46.32;97621.84;8315401;28;20232;-79
2022/09/09 07:52:47;;;;;;;4.93;1.20;;;;;;;21.98;47.90;97621.13;8315092;28;20566;-77
2022/09/09 07:56:52;;;;;;;4.40;1.00;;;;;;;22.51;45.57;97628.28;8315204;28;20260;-77
2022/09/09 08:00:55;;;;;;;3.30;1.10;;;;;;;22.55;44.50;97628.81;8315325;28;20247;-79
2022/09/09 08:04:58;;;;;;;4.50;1.20;;;;;;;22.27;45.96;97631.50;8315264;28;20243;-79
2022/09/09 08:09:01;;;;;;;3.80;1.30;;;;;;;21.99;45.40;97634.19;8315236;28;20232;-79
2022/09/09 08:13:05;;;;;;;3.03;0.97;;;;;;;22.62;44.99;97638.59;8314976;28;20304;-78
2022/09/09 08:17:20;;;;;;;3.33;1.20;;;;;;;23.11;44.79;97630.22;8315118;28;20229;-77
2022/09/09 08:21:24;;;;;;;3.47;1.07;;;;;;;23.19;44.23;97637.41;8315050;28;20232;-78
2022/09/09 08:25:27;;;;;;;5.73;1.30;;;;;;;23.45;43.74;97632.09;8314389;28;20237;-78
2022/09/09 08:29:31;;;;;;;4.00;1.30;;;;;;;23.61;42.88;97639.28;8314456;28;20241;-80
2022/09/09 08:33:33;;;;;;;5.57;1.30;;;;;;;23.80;42.22;97631.13;8314043;28;20236;-78
2022/09/09 08:37:36;;;;;;;3.93;1.30;;;;;;;23.48;42.22;97641.53;8314467;28;20450;-79
2022/09/09 08:42:01;;;;;;;4.13;1.20;;;;;;;23.62;41.56;97643.56;8314359;28;20283;-81
2022/09/09 08:46:10;;;;;;;2.87;0.90;;;;;;;24.11;40.31;97645.59;8313615;28;20244;-78
2022/09/09 08:50:19;;;;;;;4.50;1.20;;;;;;;24.47;39.94;97647.97;8314041;28;20347;-78
2022/09/09 08:54:23;;;;;;;3.93;1.20;;;;;;;24.85;39.99;97645.72;8313855;28;20236;-77
2022/09/09 08:58:48;;;;;;;5.87;1.50;;;;;;;24.61;39.76;97641.22;8313846;28;20252;-79
2022/09/09 09:03:00;;;;;;;4.20;1.33;;;;;;;24.77;39.62;97644.72;8318592;28;20233;-79
2022/09/09 09:07:09;;;;;;;3.77;1.23;;;;;;;24.42;40.29;97651.09;8320459;28;20235;-79
2022/09/09 09:11:12;;;;;;;6.00;1.70;;;;;;;24.34;40.16;97646.63;8320080;28;20230;-79
2022/09/09 09:15:18;;;;;;;5.57;1.43;;;;;;;24.21;39.65;97651.56;8320002;28;20229;-78
2022/09/09 09:19:25;;;;;;;8.17;1.33;;;;;;;23.92;40.81;97659.91;8320054;28;20239;-77
2022/09/09 09:23:38;;;;;;;6.07;1.47;;;;;;;23.51;41.36;97643.84;8319928;28;20264;-77
2022/09/09 09:27:43;;;;;;;3.13;1.00;;;;;;;24.57;39.59;97636.25;8319903;28;20271;-80
2022/09/09 09:31:50;;;;;;;5.20;1.40;;;;;;;25.15;38.41;97636.22;8319584;28;20245;-79
2022/09/09 09:35:54;;;;;;;8.87;1.50;;;;;;;25.69;37.65;97632.97;8319999;28;20445;-86
2022/09/09 09:40:08;;;;;;;4.57;1.17;;;;;;;26.46;36.61;97634.88;8319385;28;20444;-79
2022/09/09 09:44:24;;;;;;;4.63;1.53;;;;;;;26.16;35.59;97632.09;8319057;28;20425;-81
2022/09/09 09:48:28;;;;;;;5.47;1.40;;;;;;;25.84;36.44;97633.88;8319078;28;20233;-82
2022/09/09 09:52:34;;;;;;;2.33;1.00;;;;;;;25.45;37.24;97631.22;8319048;28;20286;-82
2022/09/09 09:56:37;;;;;;;7.13;1.50;;;;;;;25.08;37.96;97628.13;8318897;28;20235;-80
2022/09/09 10:00:49;;;;;;;3.77;1.10;;;;;;;25.24;37.66;97621.16;8318519;28;20228;-79
2022/09/09 10:05:02;;;;;;;3.50;1.10;;;;;;;26.02;35.79;97619.56;8318229;28;20238;-78
2022/09/09 10:09:22;;;;;;;3.40;1.20;;;;;;;25.48;36.85;97620.28;8318479;28;20550;-82
2022/09/09 10:13:32;;;;;;;2.67;0.90;;;;;;;26.41;36.18;97610.72;8318585;28;20322;-82
2022/09/09 10:17:39;;;;;;;6.40;1.10;;;;;;;26.92;34.22;97602.97;8318322;28;20426;-81
2022/09/09 10:22:08;;;;;;;4.30;1.30;;;;;;;26.79;33.39;97606.28;8318399;28;20264;-83
2022/09/09 10:26:20;;;;;;;3.57;1.17;;;;;;;26.46;34.25;97603.00;8318660;28;20245;-83
2022/09/09 10:30:25;;;;;;;4.73;1.50;;;;;;;26.59;34.06;97608.59;8318771;28;20246;-86
2022/09/09 10:34:44;;;;;;;4.63;1.17;;;;;;;25.77;34.84;97593.13;8318555;28;20248;-83
2022/09/09 10:38:48;;;;;;;4.53;1.33;;;;;;;25.83;35.20;97596.94;8317805;28;20237;-79
2022/09/09 10:42:59;;;;;;;4.13;1.40;;;;;;;25.99;35.32;97591.56;8319155;28;20227;-83
2022/09/09 10:47:18;;;;;;;6.13;1.27;;;;;;;26.70;34.10;97591.41;8318710;28;20628;-81
2022/09/09 10:51:30;;;;;;;3.30;1.20;;;;;;;27.07;33.10;97590.56;8317464;28;20230;-82
2022/09/09 10:55:38;;;;;;;4.97;1.53;;;;;;;27.59;32.28;97586.19;8316780;28;20234;-82
2022/09/09 10:59:48;;;;;;;5.43;1.23;;;;;;;27.86;31.77;97582.00;8317302;28;20227;-82
2022/09/09 11:04:06;;;;;;;2.83;1.10;;;;;;;25.89;33.99;97591.75;8316264;28;20272;-80
2022/09/09 11:08:13;;;;;;;4.10;1.10;;;;;;;26.33;34.89;97575.25;8316173;28;20416;-82
2022/09/09 11:12:20;;;;;;;4.17;1.10;;;;;;;26.41;33.09;97576.19;8316287;28;20233;-83
2022/09/09 11:16:27;;;;;;;5.27;1.40;;;;;;;26.39;32.94;97575.53;8316308;28;20425;-83
2022/09/09 11:20:31;;;;;;;3.53;1.00;;;;;;;27.26;31.35;97575.09;8316097;28;20238;-84
2022/09/09 11:24:40;;;;;;;4.10;1.20;;;;;;;27.05;29.31;97575.78;8315826;28;20232;-83
2022/09/09 11:28:55;;;;;;;4.33;1.20;;;;;;;27.60;29.64;97560.41;8317464;28;20231;-94
2022/09/09 11:33:35;;;;;;;3.23;0.90;;;;;;;27.78;28.12;97554.66;8317904;28;20226;-85
2022/09/09 11:38:01;;;;;;;4.07;1.00;;;;;;;27.46;29.19;97562.06;8316144;28;20229;-85
2022/09/09 11:42:08;;;;;;;5.53;1.07;;;;;;;27.74;28.29;97566.69;8315602;28;20521;-88
2022/09/09 11:46:13;;;;;;;4.37;1.10;;;;;;;27.90;27.87;97563.84;8315580;28;20550;-85
2022/09/09 11:50:34;;;;;;;3.00;0.97;;;;;;;28.35;27.70;97559.19;8315484;28;20239;-82
2022/09/09 11:54:47;;;;;;;3.77;1.17;;;;;;;28.71;26.80;97552.13;8315213;28;20246;-82
2022/09/09 11:58:57;;;;;;;3.27;1.10;;;;;;;28.89;25.32;97565.78;8314717;28;20267;-82
2022/09/09 12:03:00;;;;;;;3.00;1.10;;;;;;;28.98;26.34;97566.47;8314965;28;20243;-85
2022/09/09 12:07:05;;;;;;;4.73;1.10;;;;;;;27.55;27.31;97558.31;8315091;28;20247;-77
2022/09/09 12:11:08;;;;;;;3.40;1.10;;;;;;;26.84;28.55;97553.41;8314982;28;20224;-78
2022/09/09 12:15:25;;;;;;;3.80;1.10;;;;;;;26.70;29.59;97552.38;8314672;28;20294;-78
2022/09/09 12:19:28;;;;;;;3.00;1.10;;;;;;;26.47;29.67;97563.03;8314490;28;20241;-77
2022/09/09 12:23:42;;;;;;;4.30;1.40;;;;;;;25.96;31.25;97561.91;8314604;28;20242;-77
2022/09/09 12:27:57;;;;;;;3.93;1.10;;;;;;;25.49;33.43;97585.66;8314311;28;20236;-78
2022/09/09 12:32:04;;;;;;;6.27;1.50;;;;;;;25.14;35.06;97594.84;8314373;28;20226;-79
2022/09/09 12:36:11;;;;;;;5.17;1.23;;;;;;;24.56;36.16;97597.56;8313003;28;20525;-78
2022/09/09 12:40:23;;;;;;;3.87;1.00;;;;;;;24.41;36.95;97599.19;8314258;28;20306;-75
2022/09/09 12:44:27;;;;;;;5.03;1.30;;;;;;;24.16;40.39;97624.75;8314006;28;20228;-77
2022/09/09 12:48:34;;;;;;;14.63;2.63;;;;;;;23.95;44.21;97654.28;8314140;28;20242;-78
2022/09/09 12:52:38;;;;;;;22.60;2.70;;;;;;;23.62;45.16;97628.53;8314526;28;20241;-81
2022/09/09 12:56:46;;;;;;;13.57;2.47;;;;;;;23.73;45.00;97619.50;8314310;28;20256;-78
2022/09/09 13:00:55;;;;;;;15.67;2.27;;;;;;;23.72;46.04;97646.94;8313891;28;20224;-77
2022/09/09 13:05:09;;;;;;;8.97;2.13;;;;;;;23.62;46.89;97651.50;8313383;28;20242;-78
2022/09/09 13:09:13;;;;;;;8.80;2.03;;;;;;;23.33;49.54;97650.03;8313425;28;20440;-80
2022/09/09 13:13:24;;;;;;;8.60;1.80;;;;;;;24.15;48.05;97633.69;8313426;28;20225;-79
2022/09/09 13:17:28;;;;;;;9.80;2.00;;;;;;;24.25;48.55;97618.50;8312388;28;20241;-77
2022/09/09 13:21:37;;;;;;;9.00;2.00;;;;;;;25.28;47.22;97618.00;8314036;28;20226;-82
2022/09/09 13:25:40;;;;;;;6.73;1.80;;;;;;;25.55;45.82;97602.66;8313628;28;20292;-80
2022/09/09 13:29:54;;;;;;;7.00;1.70;;;;;;;25.34;46.54;97588.19;8313928;28;20228;-83
2022/09/09 13:33:57;;;;;;;9.53;1.70;;;;;;;25.30;45.66;97584.22;8313634;28;20528;-82
2022/09/09 13:38:07;;;;;;;4.50;1.60;;;;;;;25.41;46.89;97585.66;8313937;28;20229;-81
2022/09/09 13:42:26;;;;;;;5.30;1.30;;;;;;;24.96;47.35;97579.97;8313873;28;20295;-80
2022/09/09 13:46:36;;;;;;;7.07;1.73;;;;;;;24.67;48.76;97569.91;8314752;28;20280;-81
2022/09/09 13:50:39;;;;;;;13.33;1.57;;;;;;;24.49;49.61;97554.19;8319422;28;20238;-80
2022/09/09 13:54:42;;;;;;;8.60;1.60;;;;;;;24.37;49.43;97555.53;8319496;28;20256;-82
2022/09/09 13:58:45;;;;;;;6.93;1.43;;;;;;;24.16;50.37;97548.88;8319659;28;20242;-78
2022/09/09 14:02:49;;;;;;;7.20;1.53;;;;;;;24.21;50.52;97543.09;8318994;28;20260;-80
2022/09/09 14:06:52;;;;;;;5.97;1.60;;;;;;;25.44;47.70;97539.47;8319029;28;20307;-80
2022/09/09 14:10:55;;;;;;;4.87;1.57;;;;;;;25.70;47.91;97532.03;8319488;28;20256;-80
2022/09/09 14:14:59;;;;;;;8.67;1.67;;;;;;;25.39;48.15;97526.72;8319502;28;20229;-80
2022/09/09 14:19:03;;;;;;;5.20;1.67;;;;;;;25.64;47.89;97535.34;8319411;28;20276;-80
2022/09/09 14:23:06;;;;;;;7.13;1.50;;;;;;;25.93;47.31;97525.94;8319056;28;20300;-81
2022/09/09 14:27:09;;;;;;;6.97;1.50;;;;;;;26.27;45.23;97537.97;8319197;28;20269;-80
2022/09/09 14:31:13;;;;;;;5.73;1.40;;;;;;;26.19;44.14;97538.84;8318734;28;20227;-82
2022/09/09 14:35:18;;;;;;;5.17;1.50;;;;;;;25.46;46.40;97540.13;8319049;28;20233;-85
2022/09/09 14:39:20;;;;;;;6.17;1.57;;;;;;;25.12;47.92;97544.66;8319711;28;20430;-85
2022/09/09 14:43:23;;;;;;;10.10;1.57;;;;;;;24.85;47.98;97542.44;8318940;28;20233;-84
2022/09/09 14:47:26;;;;;;;8.97;1.53;;;;;;;24.63;48.93;97547.41;8318997;28;20224;-84
2022/09/09 14:51:30;;;;;;;6.43;1.37;;;;;;;24.47;49.27;97555.34;8318499;28;20298;-81
2022/09/09 14:55:33;;;;;;;7.97;1.50;;;;;;;24.31;48.83;97549.06;8318187;28;20229;-82
2022/09/09 14:59:36;;;;;;;6.90;1.27;;;;;;;24.15;48.44;97546.41;8316743;28;20234;-83
2022/09/09 15:03:39;;;;;;;4.97;1.50;;;;;;;23.97;48.02;97547.38;8318382;28;20239;-83
2022/09/09 15:07:43;;;;;;;9.37;1.73;;;;;;;23.81;48.00;97547.34;8316422;28;20543;-80
2022/09/09 15:11:46;;;;;;;7.80;1.30;;;;;;;23.85;48.72;97538.09;8316716;28;20227;-79
2022/09/09 15:15:49;;;;;;;5.33;1.60;;;;;;;23.69;47.05;97549.44;8315824;28;20229;-79
2022/09/09 15:19:53;;;;;;;6.13;1.53;;;;;;;23.28;47.92;97553.72;8316413;28;20533;-79
2022/09/09 15:23:58;;;;;;;5.30;1.30;;;;;;;23.26;47.35;97556.53;8316304;28;20233;-76
2022/09/09 15:28:00;;;;;;;4.93;1.27;;;;;;;23.30;46.65;97538.56;8315950;28;20539;-79
2022/09/09 15:32:03;;;;;;;4.67;1.50;;;;;;;23.30;46.97;97530.63;8316348;28;20635;-78
2022/09/09 15:36:16;;;;;;;5.43;1.00;;;;;;;23.47;46.57;97521.75;8316117;28;20431;-78
2022/09/09 15:40:20;;;;;;;5.80;1.20;;;;;;;23.53;46.78;97531.72;8315820;28;20233;-79
2022/09/09 15:44:25;;;;;;;4.37;1.20;;;;;;;23.72;46.26;97532.41;8315545;28;20233;-76
2022/09/09 15:48:33;;;;;;;2.30;0.80;;;;;;;23.86;44.12;97523.06;8315690;28;20264;-76
2022/09/09 15:52:35;;;;;;;3.37;1.10;;;;;;;23.96;42.28;97529.03;8315322;28;20232;-78
2022/09/09 15:56:39;;;;;;;3.50;0.97;;;;;;;24.21;42.59;97527.22;8315317;28;20243;-76
2022/09/09 16:00:42;;;;;;;3.33;0.80;;;;;;;23.89;42.95;97517.44;8315280;28;20243;-78
2022/09/09 16:04:45;;;;;;;4.73;0.93;;;;;;;23.94;42.25;97515.16;8314862;28;20539;-77
2022/09/09 16:08:49;;;;;;;3.33;0.80;;;;;;;23.98;42.10;97516.47;8314250;28;20240;-78
2022/09/09 16:12:54;;;;;;;5.23;0.70;;;;;;;24.02;41.84;97525.72;8314830;28;20228;-77
2022/09/09 16:16:56;;;;;;;2.87;1.00;;;;;;;23.96;41.90;97521.09;8314866;28;20235;-80
2022/09/09 16:21:00;;;;;;;3.13;0.80;;;;;;;23.82;39.63;97519.94;8314830;28;20220;-77
2022/09/09 16:25:02;;;;;;;1.67;0.70;;;;;;;23.69;40.28;97522.19;8314594;28;20229;-78
2022/09/09 16:29:07;;;;;;;2.13;0.80;;;;;;;23.62;39.94;97512.22;8314755;28;20220;-78
2022/09/09 16:33:10;;;;;;;6.30;0.93;;;;;;;23.47;40.80;97527.06;8314558;28;20288;-79
2022/09/09 16:37:12;;;;;;;8.73;1.03;;;;;;;23.54;42.27;97535.19;8314531;28;20240;-77
2022/09/09 16:41:15;;;;;;;3.60;1.00;;;;;;;23.40;42.31;97544.56;8314996;28;20294;-79
2022/09/09 16:45:19;;;;;;;1.97;0.83;;;;;;;23.13;40.83;97556.97;8314776;28;20228;-79
2022/09/09 16:49:22;;;;;;;5.50;0.90;;;;;;;23.14;41.60;97571.00;8314834;28;20232;-78
2022/09/09 16:53:25;;;;;;;5.17;0.90;;;;;;;23.08;41.57;97580.38;8314909;28;20237;-78
2022/09/09 16:57:29;;;;;;;4.60;0.90;;;;;;;23.05;41.96;97588.59;8314509;28;20237;-79
2022/09/09 17:01:37;;;;;;;7.67;0.80;;;;;;;23.09;42.67;97597.06;8314294;28;20229;-76
2022/09/09 17:05:41;;;;;;;4.67;0.83;;;;;;;23.11;42.27;97595.06;8314049;28;20473;-77
2022/09/09 17:09:44;;;;;;;1.47;0.70;;;;;;;22.94;42.09;97607.31;8314065;28;20289;-77
2022/09/09 17:13:48;;;;;;;1.67;0.70;;;;;;;22.99;42.01;97605.88;8313506;28;20511;-76
2022/09/09 17:17:54;;;;;;;2.13;0.70;;;;;;;22.97;42.49;97612.28;8313875;28;20234;-77
2022/09/09 17:21:58;;;;;;;2.50;0.80;;;;;;;22.94;42.72;97610.81;8315369;28;20229;-77
2022/09/09 17:26:21;;;;;;;4.33;0.90;;;;;;;22.86;42.32;97613.38;8319894;28;20239;-78
2022/09/09 17:30:23;;;;;;;5.87;0.90;;;;;;;22.87;43.78;97609.75;8319432;28;20229;-79
2022/09/09 17:34:28;;;;;;;9.07;1.00;;;;;;;22.84;43.39;97610.88;8319858;28;20232;-79
2022/09/09 17:38:30;;;;;;;5.00;0.80;;;;;;;22.86;43.86;97613.38;8319858;28;20282;-81
2022/09/09 17:42:34;;;;;;;4.07;0.90;;;;;;;22.80;43.59;97606.06;8320349;28;20294;-76
2022/09/09 17:46:40;;;;;;;5.00;1.00;;;;;;;22.81;43.90;97620.94;8319820;28;20505;-80
2022/09/09 17:50:44;;;;;;;5.00;1.00;;;;;;;22.76;44.67;97629.31;8320191;28;20417;-79
2022/09/09 17:54:47;;;;;;;6.27;1.07;;;;;;;22.79;44.63;97628.16;8317599;28;20578;-75
2022/09/09 17:58:51;;;;;;;4.10;0.80;;;;;;;22.78;44.29;97627.34;8318559;28;20253;-86
2022/09/09 18:02:53;;;;;;;4.37;1.00;;;;;;;22.61;43.02;97642.22;8317877;28;20235;-78
2022/09/09 18:06:58;;;;;;;3.37;0.80;;;;;;;22.30;43.52;97646.22;8318596;28;20260;-77
2022/09/09 18:11:00;;;;;;;1.83;0.70;;;;;;;21.99;43.80;97636.81;8318988;28;20243;-76
2022/09/09 18:15:04;;;;;;;0.80;0.50;;;;;;;21.98;43.63;97644.88;8318683;28;20451;-78
2022/09/09 18:19:09;;;;;;;2.93;1.00;;;;;;;21.94;43.93;97654.06;8318541;28;20237;-77
2022/09/09 18:23:13;;;;;;;2.37;0.70;;;;;;;21.89;44.41;97672.94;8318229;28;20450;-77
2022/09/09 18:27:16;;;;;;;1.63;0.90;;;;;;;21.84;48.08;97676.00;8318092;28;20279;-80
2022/09/09 18:31:22;;;;;;;3.53;0.70;;;;;;;21.64;48.68;97672.63;8318058;28;20234;-79
2022/09/09 18:35:25;;;;;;;4.90;1.00;;;;;;;21.48;51.61;97667.16;8317813;28;20233;-80
2022/09/09 18:39:29;;;;;;;2.20;0.90;;;;;;;21.39;51.10;97678.50;8317649;28;20384;-77
2022/09/09 18:43:32;;;;;;;2.47;1.10;;;;;;;21.24;50.68;97678.94;8317522;28;20232;-76
2022/09/09 18:47:36;;;;;;;2.90;1.20;;;;;;;21.13;52.00;97678.28;8317437;28;20275;-78
2022/09/09 18:51:41;;;;;;;11.07;8.37;;;;;;;21.17;51.70;97682.28;8317517;28;20235;-76
2022/09/09 18:55:45;;;;;;;19.80;16.00;;;;;;;20.91;51.55;97688.16;8317316;28;20229;-77
2022/09/09 18:59:49;;;;;;;5.13;1.40;;;;;;;20.98;51.81;97688.41;8316596;28;20229;-76
2022/09/09 19:03:53;;;;;;;5.13;2.10;;;;;;;20.98;51.37;97680.53;8316698;28;20455;-75
2022/09/09 19:07:55;;;;;;;3.97;1.60;;;;;;;20.85;51.64;97681.66;8316837;28;20229;-76
2022/09/09 19:12:00;;;;;;;4.10;1.43;;;;;;;20.88;52.11;97688.44;8316362;28;20228;-75
2022/09/09 19:16:04;;;;;;;4.10;1.27;;;;;;;20.65;53.35;97703.69;8316714;28;20228;-76
2022/09/09 19:20:08;;;;;;;4.23;0.90;;;;;;;20.65;52.28;97711.56;8316635;28;20259;-75